createdAt,value
2024-04-17T00:02:19.037Z,60.25
2024-04-17T00:04:45.956Z,60.21
2024-04-17T00:07:13.550Z,60.44
2024-04-17T00:09:40.495Z,60.51
2024-04-17T00:12:10.614Z,60.19
2024-04-17T00:14:38.168Z,59.99
2024-04-17T00:17:05.929Z,59.80
2024-04-17T00:19:33.434Z,59.81
2024-04-17T00:22:00.183Z,59.80
2024-04-17T00:24:26.923Z,60.13
2024-04-17T00:26:54.533Z,60.36
2024-04-17T00:29:22.216Z,60.26
2024-04-17T00:31:49.823Z,60.22
2024-04-17T00:34:16.910Z,60.28
2024-04-17T00:36:43.792Z,60.25
2024-04-17T00:39:13.677Z,60.39
2024-04-17T00:41:40.613Z,60.42
2024-04-17T00:44:08.679Z,60.48
2024-04-17T00:46:38.730Z,60.46
2024-04-17T00:49:06.697Z,60.65
2024-04-17T00:51:36.169Z,60.67
2024-04-17T00:54:04.513Z,60.65
2024-04-17T00:56:32.544Z,61.08
2024-04-17T00:59:01.505Z,61.05
2024-04-17T01:01:28.552Z,61.04
2024-04-17T01:03:55.922Z,61.22
2024-04-17T01:06:23.738Z,61.14
2024-04-17T01:08:50.927Z,61.28
2024-04-17T01:11:17.747Z,61.35
2024-04-17T01:13:44.988Z,61.44
2024-04-17T01:16:12.307Z,61.44
2024-04-17T01:18:41.596Z,61.54
2024-04-17T01:21:10.859Z,61.61
2024-04-17T01:23:40.384Z,61.54
2024-04-17T01:26:07.160Z,61.54
2024-04-17T01:28:34.406Z,61.56
2024-04-17T01:31:01.329Z,61.76
2024-04-17T01:33:28.729Z,61.57
2024-04-17T01:35:55.778Z,61.71
2024-04-17T01:38:23.055Z,61.84
2024-04-17T01:40:50.023Z,61.78
2024-04-17T01:43:17.142Z,61.77
2024-04-17T01:45:48.698Z,62.03
2024-04-17T01:48:16.630Z,61.99
2024-04-17T01:50:44.596Z,62.00
2024-04-17T01:53:11.989Z,62.27
2024-04-17T01:55:38.889Z,62.39
2024-04-17T01:58:06.082Z,62.63
2024-04-17T02:00:34.859Z,62.46
2024-04-17T02:03:08.901Z,62.55
2024-04-17T02:05:36.619Z,62.69
2024-04-17T02:08:03.511Z,62.84
2024-04-17T02:10:30.730Z,62.74
2024-04-17T02:12:57.892Z,62.68
2024-04-17T02:15:24.715Z,62.94
2024-04-17T02:17:52.497Z,63.17
2024-04-17T02:20:19.579Z,63.22
2024-04-17T02:22:52.333Z,63.48
2024-04-17T02:25:20.564Z,63.47
2024-04-17T02:27:48.270Z,63.24
2024-04-17T02:30:15.444Z,63.13
2024-04-17T02:32:43.180Z,63.37
2024-04-17T02:35:10.343Z,63.28
2024-04-17T02:37:37.530Z,63.18
2024-04-17T02:40:04.983Z,63.50
2024-04-17T02:42:31.952Z,63.56
2024-04-17T02:44:58.945Z,63.48
2024-04-17T02:47:25.815Z,63.61
2024-04-17T02:49:52.794Z,63.71
2024-04-17T02:52:20.573Z,63.65
2024-04-17T02:54:47.498Z,64.07
2024-04-17T02:57:15.048Z,63.93
2024-04-17T02:59:41.945Z,63.80
2024-04-17T03:02:08.834Z,64.03
2024-04-17T03:04:36.044Z,64.17
2024-04-17T03:07:03.353Z,64.31
2024-04-17T03:09:30.636Z,64.17
2024-04-17T03:11:58.779Z,64.27
2024-04-17T03:14:25.975Z,64.54
2024-04-17T03:16:53.058Z,64.88
2024-04-17T03:19:22.003Z,65.11
2024-04-17T03:21:48.999Z,65.61
2024-04-17T03:24:17.694Z,65.60
2024-04-17T03:26:44.484Z,66.13
2024-04-17T03:29:11.506Z,66.17
2024-04-17T03:31:39.891Z,66.41
2024-04-17T03:34:07.065Z,66.51
2024-04-17T03:36:33.924Z,67.07
2024-04-17T03:39:01.066Z,66.77
2024-04-17T03:41:28.427Z,66.81
2024-04-17T03:43:55.479Z,67.12
2024-04-17T03:46:22.751Z,67.25
2024-04-17T03:48:49.502Z,67.25
2024-04-17T03:51:16.346Z,67.39
2024-04-17T03:53:43.184Z,67.84
2024-04-17T03:56:12.093Z,67.55
2024-04-17T03:58:39.528Z,67.57
2024-04-17T04:01:07.531Z,67.54
2024-04-17T04:03:35.431Z,67.27
2024-04-17T04:06:02.306Z,67.20
2024-04-17T04:08:29.206Z,67.15
2024-04-17T04:10:56.485Z,67.06
2024-04-17T04:13:24.268Z,67.06
2024-04-17T04:15:54.841Z,66.84
2024-04-17T04:18:22.080Z,65.85
2024-04-17T04:20:50.185Z,65.61
2024-04-17T04:23:17.325Z,64.51
2024-04-17T04:25:44.321Z,63.80
2024-04-17T04:28:11.259Z,63.95
2024-04-17T04:30:41.276Z,63.69
2024-04-17T04:33:13.038Z,63.07
2024-04-17T04:35:40.749Z,62.99
2024-04-17T04:38:07.671Z,63.21
2024-04-17T04:40:34.658Z,62.68
2024-04-17T04:43:01.588Z,62.61
2024-04-17T04:45:28.861Z,62.38
2024-04-17T04:47:57.184Z,62.23
2024-04-17T04:50:24.145Z,62.33
2024-04-17T04:52:51.621Z,62.46
2024-04-17T04:55:18.548Z,62.45
2024-04-17T04:57:47.813Z,62.09
2024-04-17T05:00:15.493Z,62.34
2024-04-17T05:02:42.556Z,62.53
2024-04-17T05:05:09.742Z,62.58
2024-04-17T05:07:36.967Z,62.70
2024-04-17T05:10:04.092Z,62.81
2024-04-17T05:12:30.919Z,62.83
2024-04-17T05:14:57.850Z,62.34
2024-04-17T05:17:24.693Z,62.32
2024-04-17T05:19:51.495Z,61.84
2024-04-17T05:22:19.622Z,61.77
2024-04-17T05:24:47.031Z,61.50
2024-04-17T05:27:17.060Z,61.73
2024-04-17T05:29:46.712Z,61.71
2024-04-17T05:32:14.709Z,61.62
2024-04-17T05:34:42.502Z,61.83
2024-04-17T05:37:09.737Z,61.87
2024-04-17T05:39:37.017Z,61.58
2024-04-17T05:42:06.921Z,61.80
2024-04-17T05:44:34.823Z,61.89
2024-04-17T05:47:02.311Z,62.14
2024-04-17T05:49:30.996Z,62.09
2024-04-17T05:51:59.077Z,62.39
2024-04-17T05:54:26.550Z,62.28
2024-04-17T05:56:55.911Z,62.70
2024-04-17T05:59:25.924Z,62.77
2024-04-17T06:01:52.713Z,62.68
2024-04-17T06:04:19.800Z,62.73
2024-04-17T06:06:50.998Z,62.83
2024-04-17T06:09:18.805Z,62.82
2024-04-17T06:11:48.441Z,62.90
2024-04-17T06:14:16.290Z,63.07
2024-04-17T06:16:44.970Z,63.18
2024-04-17T06:19:12.842Z,63.18
2024-04-17T06:21:40.592Z,63.30
2024-04-17T06:24:07.695Z,63.65
2024-04-17T06:26:35.935Z,63.62
2024-04-17T06:29:03.974Z,63.69
2024-04-17T06:31:31.443Z,64.35
2024-04-17T06:33:59.314Z,64.49
2024-04-17T06:36:27.638Z,64.74
2024-04-17T06:38:55.450Z,64.95
2024-04-17T06:41:22.454Z,65.12
2024-04-17T06:43:50.303Z,65.33
2024-04-17T06:46:18.027Z,65.36
2024-04-17T06:48:44.859Z,64.94
2024-04-17T06:51:13.337Z,65.70
2024-04-17T06:53:42.874Z,65.73
2024-04-17T06:56:10.360Z,65.92
2024-04-17T06:58:38.155Z,65.93
2024-04-17T07:01:06.001Z,66.39
2024-04-17T07:03:33.096Z,66.45
2024-04-17T07:06:04.609Z,66.56
2024-04-17T07:08:31.911Z,66.49
2024-04-17T07:10:59.222Z,66.49
2024-04-17T07:13:27.524Z,66.73
2024-04-17T07:15:57.267Z,66.68
2024-04-17T07:18:26.116Z,66.74
2024-04-17T07:20:54.207Z,66.82
2024-04-17T07:23:21.898Z,66.26
2024-04-17T07:25:50.726Z,65.16
2024-04-17T07:28:17.629Z,65.36
2024-04-17T07:30:45.078Z,65.14
2024-04-17T07:33:12.393Z,64.83
2024-04-17T07:35:41.950Z,64.83
2024-04-17T07:38:10.702Z,64.80
2024-04-17T07:40:38.561Z,64.72
2024-04-17T07:43:06.861Z,64.85
2024-04-17T07:45:33.923Z,64.62
2024-04-17T07:48:01.213Z,64.13
2024-04-17T07:50:29.248Z,63.66
2024-04-17T07:52:56.307Z,63.96
2024-04-17T07:55:25.736Z,63.94
2024-04-17T07:57:53.039Z,63.74
2024-04-17T08:00:19.910Z,63.85
2024-04-17T08:02:48.249Z,64.13
2024-04-17T08:05:15.371Z,64.35
2024-04-17T08:07:43.407Z,64.38
2024-04-17T08:10:10.566Z,64.45
2024-04-17T08:12:38.017Z,64.75
2024-04-17T08:15:05.319Z,64.91
2024-04-17T08:17:32.555Z,65.42
2024-04-17T08:20:00.219Z,65.72
2024-04-17T08:22:27.972Z,66.45
2024-04-17T08:24:59.324Z,66.11
2024-04-17T08:27:31.772Z,65.96
2024-04-17T08:30:00.595Z,66.29
2024-04-17T08:32:28.313Z,66.58
2024-04-17T08:34:57.657Z,66.27
2024-04-17T08:37:27.253Z,66.25
2024-04-17T08:39:57.306Z,66.18
2024-04-17T08:42:30.497Z,66.30
2024-04-17T08:45:00.511Z,66.06
2024-04-17T08:47:32.874Z,65.73
2024-04-17T08:50:04.659Z,66.51
2024-04-17T08:52:33.998Z,66.56
2024-04-17T08:55:04.052Z,66.53
2024-04-17T08:57:36.293Z,66.90
2024-04-17T09:00:07.501Z,67.13
2024-04-17T09:02:37.173Z,67.06
2024-04-17T09:05:07.437Z,67.24
2024-04-17T09:07:40.712Z,67.07
2024-04-17T09:10:12.228Z,66.85
2024-04-17T09:12:48.003Z,66.60
2024-04-17T09:15:16.696Z,66.25
2024-04-17T09:17:44.740Z,66.63
2024-04-17T09:20:14.545Z,67.02
2024-04-17T09:22:51.144Z,67.06
2024-04-17T09:25:24.532Z,66.55
2024-04-17T09:27:52.771Z,66.73
2024-04-17T09:30:31.016Z,66.98
2024-04-17T09:33:05.582Z,67.08
2024-04-17T09:35:44.578Z,67.24
2024-04-17T09:38:18.731Z,67.29
2024-04-17T09:41:46.670Z,67.71
2024-04-17T09:47:10.034Z,68.75
2024-04-17T09:50:20.773Z,68.86
2024-04-17T09:52:54.591Z,69.27
2024-04-17T09:56:10.649Z,69.25
2024-04-17T10:01:29.589Z,69.72
2024-04-17T10:14:11.439Z,69.09
2024-04-17T10:16:50.608Z,68.69
2024-04-17T10:19:21.951Z,68.72
2024-04-17T10:21:49.683Z,68.46
2024-04-17T10:24:27.136Z,68.07
2024-04-17T10:26:59.422Z,68.20
2024-04-17T10:29:36.874Z,67.96
2024-04-17T10:32:31.146Z,67.59
2024-04-17T10:38:32.728Z,68.04
2024-04-17T10:43:05.429Z,68.25
2024-04-17T10:45:43.303Z,68.50
2024-04-17T10:51:37.793Z,68.10
2024-04-17T10:57:44.644Z,67.21
2024-04-17T11:01:52.402Z,67.19
2024-04-17T11:04:21.587Z,66.64
2024-04-17T11:06:54.293Z,66.60
2024-04-17T11:09:28.651Z,66.73
2024-04-17T11:12:14.019Z,66.73
2024-04-17T11:14:41.418Z,66.39
2024-04-17T11:17:10.403Z,66.88
2024-04-17T11:19:41.693Z,66.76
2024-04-17T11:22:13.246Z,66.85
2024-04-17T11:24:50.440Z,66.94
2024-04-17T11:27:18.680Z,67.03
2024-04-17T11:29:50.295Z,67.24
2024-04-17T11:32:19.505Z,67.45
2024-04-17T11:34:47.459Z,67.60
2024-04-17T11:37:16.325Z,67.32
2024-04-17T11:39:46.512Z,67.53
2024-04-17T11:42:15.643Z,66.98
2024-04-17T11:44:45.247Z,66.36
2024-04-17T11:47:15.251Z,66.31
2024-04-17T11:49:43.874Z,65.71
2024-04-17T11:52:12.899Z,65.13
2024-04-17T11:54:40.808Z,65.18
2024-04-17T11:57:12.227Z,64.77
2024-04-17T11:59:41.995Z,64.29
2024-04-17T12:02:09.005Z,64.24
2024-04-17T12:04:36.639Z,64.06
2024-04-17T12:07:04.377Z,63.87
2024-04-17T12:09:31.399Z,63.65
2024-04-17T12:11:59.089Z,63.87
2024-04-17T12:14:26.141Z,63.75
2024-04-17T12:16:53.160Z,63.58
2024-04-17T12:19:20.356Z,63.55
2024-04-17T12:21:47.218Z,63.93
2024-04-17T12:24:20.722Z,63.54
2024-04-17T12:26:52.146Z,63.45
2024-04-17T12:29:24.003Z,63.24
2024-04-17T12:31:51.150Z,63.35
2024-04-17T12:34:18.633Z,63.20
2024-04-17T12:36:47.797Z,62.76
2024-04-17T12:39:14.764Z,62.21
2024-04-17T12:41:41.744Z,61.98
2024-04-17T12:44:08.723Z,61.47
2024-04-17T12:46:36.288Z,60.97
2024-04-17T12:49:03.550Z,61.22
2024-04-17T12:51:31.454Z,61.46
2024-04-17T12:54:00.299Z,61.37
2024-04-17T12:56:27.205Z,61.13
2024-04-17T12:58:54.156Z,61.07
2024-04-17T13:01:21.337Z,60.91
2024-04-17T13:03:48.420Z,61.19
2024-04-17T13:06:15.533Z,61.33
2024-04-17T13:08:42.440Z,61.70
2024-04-17T13:11:13.418Z,61.47
2024-04-17T13:13:43.152Z,61.04
2024-04-17T13:16:10.066Z,60.72
2024-04-17T13:18:39.305Z,61.05
2024-04-17T13:21:06.955Z,61.16
2024-04-17T13:23:35.654Z,60.72
2024-04-17T13:26:03.722Z,60.40
2024-04-17T13:28:34.987Z,60.32
2024-04-17T13:31:04.002Z,60.38
2024-04-17T13:33:32.287Z,60.07
2024-04-17T13:36:04.846Z,60.09
2024-04-17T13:38:31.838Z,59.88
2024-04-17T13:41:08.714Z,59.62
2024-04-17T13:43:39.669Z,59.65
2024-04-17T13:46:31.819Z,59.51
2024-04-17T13:48:59.484Z,59.33
2024-04-17T13:51:27.644Z,58.80
2024-04-17T13:53:55.420Z,58.00
2024-04-17T13:56:24.906Z,57.20
2024-04-17T13:58:52.204Z,56.94
2024-04-17T14:01:20.791Z,56.73
2024-04-17T14:03:48.756Z,57.04
2024-04-17T14:06:17.523Z,56.98
2024-04-17T14:08:45.174Z,56.86
2024-04-17T14:11:12.135Z,56.74
2024-04-17T14:13:39.673Z,56.99
2024-04-17T14:16:09.624Z,57.29
2024-04-17T14:18:36.978Z,57.06
2024-04-17T14:21:14.055Z,57.12
2024-04-17T14:23:43.435Z,56.81
2024-04-17T14:26:10.931Z,56.78
2024-04-17T14:28:37.996Z,57.09
2024-04-17T14:31:13.474Z,56.97
2024-04-17T14:33:44.295Z,57.29
2024-04-17T14:36:14.349Z,57.77
2024-04-17T14:38:56.989Z,57.88
2024-04-17T14:41:27.839Z,57.84
2024-04-17T14:43:56.611Z,57.89
2024-04-17T14:46:25.642Z,57.81
2024-04-17T14:48:52.603Z,57.42
2024-04-17T14:51:19.975Z,56.94
2024-04-17T14:53:46.781Z,56.90
2024-04-17T14:56:13.894Z,57.39
2024-04-17T14:58:40.972Z,57.46
2024-04-17T15:01:09.108Z,57.60
2024-04-17T15:03:37.705Z,57.54
2024-04-17T15:06:12.506Z,57.78
2024-04-17T15:08:42.382Z,58.09
2024-04-17T15:11:12.858Z,58.13
2024-04-17T15:13:43.382Z,58.37
2024-04-17T15:16:13.234Z,57.91
2024-04-17T15:18:41.134Z,57.33
2024-04-17T15:21:14.532Z,57.49
2024-04-17T15:24:05.940Z,57.50
2024-04-17T15:26:32.853Z,57.17
2024-04-17T15:28:59.952Z,57.16
2024-04-17T15:31:28.474Z,57.22
2024-04-17T15:33:58.235Z,57.36
2024-04-17T15:36:27.284Z,57.55
2024-04-17T15:38:59.727Z,57.73
2024-04-17T15:41:30.837Z,58.01
2024-04-17T15:43:58.318Z,57.82
2024-04-17T15:46:26.599Z,57.65
2024-04-17T15:48:53.565Z,57.70
2024-04-17T15:51:20.671Z,57.53
2024-04-17T15:53:50.497Z,57.50
2024-04-17T15:56:21.024Z,57.27
2024-04-17T15:58:50.771Z,56.58
2024-04-17T16:01:21.398Z,56.82
2024-04-17T16:03:53.393Z,56.69
2024-04-17T16:06:25.434Z,56.37
2024-04-17T16:08:53.859Z,56.72
2024-04-17T16:11:22.532Z,56.94
2024-04-17T16:13:50.413Z,56.79
2024-04-17T16:16:26.739Z,56.62
2024-04-17T16:18:54.349Z,56.59
2024-04-17T16:21:23.083Z,56.93
2024-04-17T16:23:52.974Z,57.62
2024-04-17T16:26:30.543Z,57.47
2024-04-17T16:29:02.371Z,57.96
2024-04-17T16:31:32.994Z,57.82
2024-04-17T16:34:01.719Z,57.82
2024-04-17T16:36:42.446Z,57.64
2024-04-17T16:39:12.967Z,57.93
2024-04-17T16:41:45.676Z,57.92
2024-04-17T16:44:19.053Z,57.98
2024-04-17T16:46:47.192Z,58.47
2024-04-17T16:49:18.154Z,58.21
2024-04-17T16:51:50.408Z,58.25
2024-04-17T16:54:17.894Z,58.33
2024-04-17T16:57:08.959Z,58.13
2024-04-17T16:59:47.001Z,58.19
2024-04-17T17:02:21.631Z,58.12
2024-04-17T17:04:53.278Z,58.11
2024-04-17T17:07:22.931Z,58.24
2024-04-17T17:12:52.712Z,58.84
2024-04-17T17:15:30.756Z,58.71
2024-04-17T17:18:01.670Z,58.81
2024-04-17T17:20:29.655Z,58.72
2024-04-17T17:22:56.932Z,58.72
2024-04-17T17:25:24.200Z,58.99
2024-04-17T17:27:52.861Z,59.25
2024-04-17T17:30:19.918Z,59.17
2024-04-17T17:32:47.838Z,59.40
2024-04-17T17:35:15.130Z,59.78
2024-04-17T17:37:43.780Z,60.05
2024-04-17T17:40:12.401Z,60.05
2024-04-17T17:42:44.115Z,60.10
2024-04-17T17:45:14.228Z,60.03
2024-04-17T17:47:49.392Z,60.29
2024-04-17T17:50:18.103Z,60.38
2024-04-17T17:52:48.655Z,60.60
2024-04-17T17:55:21.821Z,60.71
2024-04-17T17:57:58.490Z,60.74
2024-04-17T18:00:31.963Z,60.64
2024-04-17T18:03:15.632Z,60.60
2024-04-17T18:06:07.183Z,60.51
2024-04-17T18:14:46.518Z,60.62
2024-04-17T18:20:36.087Z,60.79
2024-04-17T18:23:24.113Z,60.84
2024-04-17T18:25:52.540Z,61.08
2024-04-17T18:28:28.239Z,61.37
2024-04-17T18:30:59.029Z,61.62
2024-04-17T18:33:43.314Z,61.90
2024-04-17T18:36:29.818Z,62.13
2024-04-17T18:39:00.298Z,62.48
2024-04-17T18:41:33.200Z,62.65
2024-04-17T18:44:10.587Z,62.81
2024-04-17T18:46:40.721Z,62.91
2024-04-17T18:49:12.599Z,63.25
2024-04-17T18:52:50.426Z,63.33
2024-04-17T18:56:16.198Z,63.33
2024-04-17T18:59:04.566Z,63.32
2024-04-17T19:01:38.692Z,63.14
2024-04-17T19:04:11.849Z,63.33
2024-04-17T19:06:46.684Z,63.68
2024-04-17T19:09:47.571Z,64.06
2024-04-17T19:12:21.927Z,64.18
2024-04-17T19:14:53.783Z,64.30
2024-04-17T19:17:35.078Z,64.40
2024-04-17T19:20:20.550Z,64.38
2024-04-17T19:23:02.087Z,64.36
2024-04-17T19:25:41.677Z,64.43
2024-04-17T19:28:25.064Z,64.49
2024-04-17T19:31:36.487Z,64.38
2024-04-17T19:34:14.807Z,64.42
2024-04-17T19:37:02.484Z,64.80
2024-04-17T19:40:01.301Z,64.93
2024-04-17T19:43:23.714Z,64.87
2024-04-17T19:46:09.312Z,64.74
2024-04-17T19:48:50.018Z,65.00
2024-04-17T19:51:26.509Z,64.96
2024-04-17T19:54:11.612Z,65.10
2024-04-17T19:56:52.069Z,65.17
2024-04-17T19:59:25.712Z,65.17
2024-04-17T20:01:57.919Z,65.20
2024-04-17T20:04:38.811Z,65.28
2024-04-17T20:07:15.167Z,64.99
2024-04-17T20:09:45.035Z,64.85
2024-04-17T20:12:13.059Z,64.50
2024-04-17T20:14:47.158Z,64.65
2024-04-17T20:17:15.604Z,64.45
2024-04-17T20:19:45.846Z,64.45
2024-04-17T20:22:16.420Z,64.24
2024-04-17T20:24:50.394Z,64.04
2024-04-17T20:27:18.325Z,63.91
2024-04-17T20:30:10.262Z,64.18
2024-04-17T20:32:49.040Z,64.15
2024-04-17T20:35:31.349Z,64.31
2024-04-17T20:41:56.144Z,64.41
2024-04-17T20:45:05.712Z,64.58
2024-04-17T20:47:39.244Z,64.98
2024-04-17T20:50:30.342Z,65.04
2024-04-17T20:53:07.724Z,64.97
2024-04-17T20:55:47.048Z,64.73
2024-04-17T20:58:47.937Z,64.75
2024-04-17T21:01:47.533Z,64.47
2024-04-17T21:08:51.711Z,64.45
2024-04-17T21:11:23.037Z,64.46
2024-04-17T21:13:57.835Z,64.42
2024-04-17T21:16:36.029Z,64.46
2024-04-17T21:19:10.867Z,64.87
2024-04-17T21:21:43.246Z,64.86
2024-04-17T21:24:26.332Z,65.06
2024-04-17T21:26:59.127Z,65.14
2024-04-17T21:29:34.152Z,65.29
2024-04-17T21:32:09.051Z,65.38
2024-04-17T21:34:44.803Z,65.46
2024-04-17T21:37:44.887Z,65.56
2024-04-17T21:40:24.063Z,65.67
2024-04-17T21:43:27.063Z,65.78
2024-04-17T21:46:03.235Z,65.85
2024-04-17T21:48:32.211Z,65.84
2024-04-17T21:51:04.388Z,65.81
2024-04-17T21:53:34.324Z,65.83
2024-04-17T21:56:05.608Z,65.82
2024-04-17T21:58:48.027Z,65.83
2024-04-17T22:01:17.074Z,65.64
2024-04-17T22:03:45.219Z,65.58
2024-04-17T22:06:17.751Z,65.68
2024-04-17T22:08:46.327Z,65.78
2024-04-17T22:11:18.654Z,65.61
2024-04-17T22:16:46.549Z,65.70
2024-04-17T22:19:18.296Z,65.90
2024-04-17T22:21:48.482Z,66.05
2024-04-17T22:24:21.112Z,66.19
2024-04-17T22:27:03.413Z,66.24
2024-04-17T22:29:44.908Z,66.28
2024-04-17T22:32:17.359Z,66.29
2024-04-17T22:34:57.340Z,66.29
2024-04-17T22:37:32.279Z,66.29
2024-04-17T22:40:08.730Z,66.22
2024-04-17T22:42:39.362Z,66.10
2024-04-17T22:45:30.745Z,66.10
2024-04-17T22:48:05.899Z,65.99
2024-04-17T22:50:37.117Z,66.19
2024-04-17T22:53:07.113Z,66.28
2024-04-17T22:55:51.514Z,66.14
2024-04-17T22:58:21.070Z,65.76
2024-04-17T23:00:53.751Z,65.76
2024-04-17T23:03:24.592Z,65.79
2024-04-17T23:06:13.001Z,66.04
2024-04-17T23:08:49.887Z,66.07
2024-04-17T23:11:20.121Z,66.02
2024-04-17T23:13:54.108Z,66.17
2024-04-17T23:16:24.473Z,66.21
2024-04-17T23:19:12.565Z,66.48
2024-04-17T23:21:49.123Z,66.45
2024-04-17T23:24:24.481Z,66.65
2024-04-17T23:26:57.907Z,66.72
2024-04-17T23:29:31.810Z,66.66
2024-04-17T23:32:12.562Z,66.75
2024-04-17T23:34:45.599Z,66.94
2024-04-17T23:37:29.986Z,66.95
2024-04-17T23:39:59.274Z,67.19
2024-04-17T23:42:31.498Z,67.38
2024-04-17T23:45:02.985Z,67.53
2024-04-17T23:47:37.245Z,67.64
2024-04-17T23:50:11.099Z,67.43
2024-04-17T23:52:42.482Z,67.66
2024-04-17T23:55:11.820Z,67.63
2024-04-17T23:57:50.134Z,67.54
